Tropical Cyclones
[Index]
Season 2020-2021 Tropical Cyclone ALICIA Track Map
Season 2020-2021 Summaries (Operational Data): [AU] [SIO] [SPAC] [SH]
<<- Previous TC | 2020-2021 Season | Next TC ->>

click for intensity scale information  Lat/long Grid: Show Hide

 Date Labels: Show Hide

Operational Tropical Cyclone Data

Name: ALICIA
Number: 2101

08 Nov 2020 12:00 UTC to 20 Nov 2020 06:00 UTC

    date/time    lat    long     hPa   cat  kts
2020-11-08 12    4.0    95.7    1010         15          
2020-11-08 18    4.4    94.3    1010         15          
2020-11-09 00    4.7    93.0    1010         15          
2020-11-09 06    5.0    91.8    1010         15          
2020-11-09 12    5.3    90.7    1008         15          
2020-11-09 18    2.5    94.0    1010         15          
2020-11-10 00    2.9    92.9    1010         15          
2020-11-10 06    3.2    92.1    1007         15          
2020-11-10 12    3.6    91.2    1007         15          
2020-11-10 18    3.7    90.8    1010         15          
2020-11-11 00    4.0    90.4    1008         15          
2020-11-11 06    3.7    91.8    1010         15          
2020-11-11 12    3.7    91.2    1010         15          
2020-11-11 18    3.9    90.4    1006         20          
2020-11-12 00    4.1    89.6    1004         20          
2020-11-12 06    4.3    88.9    1006         20          
2020-11-12 12    4.4    87.8    1006         20          
2020-11-12 18    4.6    86.8    1006         20          
2020-11-13 00    4.9    85.5    1004         25          
2020-11-13 06    5.4    84.2    1004         25          
2020-11-13 12    6.0    82.7    1004         25          
2020-11-13 18    6.5    81.5    1004         30          
2020-11-14 00    7.4    79.7     997    1    40          
2020-11-14 06    8.5    78.5     997    1    40          
2020-11-14 12    9.5    77.2     994    1    45          
2020-11-14 18   10.5    76.2     991    2    50          
2020-11-15 00   11.7    74.9     991    2    50          
2020-11-15 06   12.6    74.1     988    2    55          
2020-11-15 12   13.6    73.3     986    2    55          
2020-11-15 18   14.5    73.0     984    2    55          
2020-11-16 00   15.4    72.7     984    2    55          
2020-11-16 06   16.0    72.3     983    2    55          
2020-11-16 12   16.3    72.1     983    2    50          
2020-11-16 18   16.5    71.9     996    1    40          
2020-11-17 00   16.7    71.8     994    1    40          
2020-11-17 06   17.0    71.6     999         30          
2020-11-17 12   17.4    71.2     999         30          
2020-11-17 18   17.7    70.9     999         25          
2020-11-18 00   18.3    70.5    1000         25          
2020-11-18 06   19.1    70.0    1004         20          
2020-11-18 12   19.4    69.3    1004         20          
2020-11-18 18   19.5    68.1    1002         20          
2020-11-19 00   20.0    67.6    1006         20          
2020-11-19 06   20.8    66.5    1005         20          
2020-11-19 12   21.2    66.3    1005         20          
2020-11-19 18   21.5    66.1    1011         20          
2020-11-20 00   22.0    65.9    1010         20          
2020-11-20 06   22.9    65.7    1011         15          
Winds were reported as (or converted to) 10-min average.

Tropical cyclone tracks developed by Michael Bath using operational warnings and advisories and Google Maps.


Document: tropical_cyclone_alicia.htm
Updated: 7 May 2021
[Australian Severe Weather index] [Copyright Notice] [Email Contacts] [Search This Site] [Privacy Policy]


Main Index Home Page Stock Weather Photos Extreme Storms Discussion Storm News and Storm Chasing Reports Tropical Cyclones / Hurricanes / Typhoons Weather Data and Links Wild Fires / Bushfires Weather Observation Techniques Weather Picture Catalogue Tornado Pictures and Reports Stock Video Footage and DVDs for sale